sensor_id;sensor_type;location;lat;lon;timestamp;pressure;altitude;pressure_sealevel;temperature;humidity
6835;BME280;3455;42.150;24.734;2023-04-28T00:02:01;66751.13;;;13.44;38.99
6835;BME280;3455;42.150;24.734;2023-04-28T00:04:29;66757.38;;;13.68;38.22
6835;BME280;3455;42.150;24.734;2023-04-28T00:06:56;66690.03;;;13.21;38.70
6835;BME280;3455;42.150;24.734;2023-04-28T00:09:23;66722.88;;;13.23;38.31
6835;BME280;3455;42.150;24.734;2023-04-28T00:11:49;66743.72;;;13.42;37.67
6835;BME280;3455;42.150;24.734;2023-04-28T00:14:16;66745.78;;;13.57;37.00
6835;BME280;3455;42.150;24.734;2023-04-28T00:16:43;66750.66;;;13.48;37.06
6835;BME280;3455;42.150;24.734;2023-04-28T00:19:10;66853.91;;;13.58;37.21
6835;BME280;3455;42.150;24.734;2023-04-28T00:21:38;66735.38;;;13.71;37.64
6835;BME280;3455;42.150;24.734;2023-04-28T00:24:05;66721.50;;;13.58;37.59
6835;BME280;3455;42.150;24.734;2023-04-28T00:26:32;66776.34;;;13.57;37.77
6835;BME280;3455;42.150;24.734;2023-04-28T00:28:59;66723.13;;;13.55;37.84
6835;BME280;3455;42.150;24.734;2023-04-28T00:31:25;66725.66;;;13.67;37.95
6835;BME280;3455;42.150;24.734;2023-04-28T00:33:52;66693.75;;;13.45;38.51
6835;BME280;3455;42.150;24.734;2023-04-28T00:36:19;66698.13;;;13.29;39.15
6835;BME280;3455;42.150;24.734;2023-04-28T00:38:47;66684.13;;;13.12;38.89
6835;BME280;3455;42.150;24.734;2023-04-28T00:41:14;66697.91;;;12.97;39.53
6835;BME280;3455;42.150;24.734;2023-04-28T00:43:44;66697.91;;;12.97;39.64
6835;BME280;3455;42.150;24.734;2023-04-28T00:46:18;66722.75;;;12.96;39.98
6835;BME280;3455;42.150;24.734;2023-04-28T00:48:46;66699.63;;;13.21;39.73
6835;BME280;3455;42.150;24.734;2023-04-28T00:51:13;66637.41;;;12.97;39.94
6835;BME280;3455;42.150;24.734;2023-04-28T00:53:41;66639.63;;;12.50;41.17
6835;BME280;3455;42.150;24.734;2023-04-28T00:56:09;66641.69;;;12.42;41.19
6835;BME280;3455;42.150;24.734;2023-04-28T00:58:36;66626.91;;;12.38;41.47
6835;BME280;3455;42.150;24.734;2023-04-28T01:01:04;66625.16;;;12.37;42.01
6835;BME280;3455;42.150;24.734;2023-04-28T01:03:32;66622.03;;;12.25;42.50
6835;BME280;3455;42.150;24.734;2023-04-28T01:06:00;66608.66;;;12.54;42.50
6835;BME280;3455;42.150;24.734;2023-04-28T01:08:28;66636.59;;;12.42;42.38
6835;BME280;3455;42.150;24.734;2023-04-28T01:10:55;66616.50;;;12.29;43.01
6835;BME280;3455;42.150;24.734;2023-04-28T01:13:24;66593.53;;;12.24;43.25
6835;BME280;3455;42.150;24.734;2023-04-28T01:15:51;66627.38;;;12.34;43.58
6835;BME280;3455;42.150;24.734;2023-04-28T01:18:17;66622.28;;;12.34;43.27
6835;BME280;3455;42.150;24.734;2023-04-28T01:20:44;66608.75;;;12.13;43.69
6835;BME280;3455;42.150;24.734;2023-04-28T01:23:11;66580.69;;;11.97;44.40
6835;BME280;3455;42.150;24.734;2023-04-28T01:25:40;66543.47;;;11.78;45.00
6835;BME280;3455;42.150;24.734;2023-04-28T01:28:07;66605.63;;;12.01;45.13
6835;BME280;3455;42.150;24.734;2023-04-28T01:30:34;66557.56;;;11.77;45.92
6835;BME280;3455;42.150;24.734;2023-04-28T01:33:01;66609.94;;;11.74;46.07
6835;BME280;3455;42.150;24.734;2023-04-28T01:35:28;66560.25;;;11.93;45.62
6835;BME280;3455;42.150;24.734;2023-04-28T01:37:54;66534.53;;;11.38;47.34
6835;BME280;3455;42.150;24.734;2023-04-28T01:40:21;66560.31;;;11.63;46.13
6835;BME280;3455;42.150;24.734;2023-04-28T01:42:50;66574.03;;;11.60;46.42
6835;BME280;3455;42.150;24.734;2023-04-28T01:45:16;66536.97;;;11.45;47.31
6835;BME280;3455;42.150;24.734;2023-04-28T01:47:43;66563.09;;;11.73;46.77
6835;BME280;3455;42.150;24.734;2023-04-28T01:50:10;66517.63;;;11.71;46.88
6835;BME280;3455;42.150;24.734;2023-04-28T01:52:36;66517.50;;;11.03;47.55
6835;BME280;3455;42.150;24.734;2023-04-28T01:55:04;66506.47;;;11.22;47.65
6835;BME280;3455;42.150;24.734;2023-04-28T01:57:31;66491.28;;;11.45;46.84
6835;BME280;3455;42.150;24.734;2023-04-28T02:00:01;66549.56;;;11.52;46.40
6835;BME280;3455;42.150;24.734;2023-04-28T02:02:29;66535.56;;;11.35;47.23
6835;BME280;3455;42.150;24.734;2023-04-28T02:04:56;66531.22;;;11.40;47.03
6835;BME280;3455;42.150;24.734;2023-04-28T02:07:23;66528.69;;;11.51;46.25
6835;BME280;3455;42.150;24.734;2023-04-28T02:09:50;66503.28;;;11.28;46.86
6835;BME280;3455;42.150;24.734;2023-04-28T02:12:16;66531.66;;;11.36;46.48
6835;BME280;3455;42.150;24.734;2023-04-28T02:14:43;66548.53;;;11.55;46.79
6835;BME280;3455;42.150;24.734;2023-04-28T02:17:11;66543.22;;;11.46;47.13
6835;BME280;3455;42.150;24.734;2023-04-28T02:19:38;66483.38;;;11.02;47.28
6835;BME280;3455;42.150;24.734;2023-04-28T02:22:05;66504.84;;;11.03;47.62
6835;BME280;3455;42.150;24.734;2023-04-28T02:24:34;66468.84;;;10.84;47.54
6835;BME280;3455;42.150;24.734;2023-04-28T02:27:02;66477.84;;;10.83;47.88
6835;BME280;3455;42.150;24.734;2023-04-28T02:29:29;66479.69;;;10.89;46.84
6835;BME280;3455;42.150;24.734;2023-04-28T02:31:56;66432.06;;;10.79;47.19
6835;BME280;3455;42.150;24.734;2023-04-28T02:34:24;66457.66;;;10.77;47.34
6835;BME280;3455;42.150;24.734;2023-04-28T02:36:51;66440.19;;;10.57;47.41
6835;BME280;3455;42.150;24.734;2023-04-28T02:39:17;66493.03;;;10.83;47.13
6835;BME280;3455;42.150;24.734;2023-04-28T02:41:46;66483.34;;;10.79;47.12
6835;BME280;3455;42.150;24.734;2023-04-28T02:44:13;66501.84;;;11.07;46.55
6835;BME280;3455;42.150;24.734;2023-04-28T02:46:39;66435.00;;;11.04;45.95
6835;BME280;3455;42.150;24.734;2023-04-28T02:49:06;66448.50;;;10.62;46.98
6835;BME280;3455;42.150;24.734;2023-04-28T02:51:34;66463.53;;;10.75;46.75
6835;BME280;3455;42.150;24.734;2023-04-28T02:54:01;66426.31;;;10.74;45.94
6835;BME280;3455;42.150;24.734;2023-04-28T02:56:28;66442.09;;;10.74;46.39
6835;BME280;3455;42.150;24.734;2023-04-28T02:58:55;66443.69;;;10.71;46.36
6835;BME280;3455;42.150;24.734;2023-04-28T03:01:22;66437.81;;;10.61;46.52
6835;BME280;3455;42.150;24.734;2023-04-28T03:03:49;66455.69;;;10.77;46.29
6835;BME280;3455;42.150;24.734;2023-04-28T03:06:15;66433.31;;;10.62;46.06
6835;BME280;3455;42.150;24.734;2023-04-28T03:08:43;66432.28;;;10.65;46.19
6835;BME280;3455;42.150;24.734;2023-04-28T03:11:10;66468.34;;;10.66;45.90
6835;BME280;3455;42.150;24.734;2023-04-28T03:13:37;66449.16;;;10.44;45.89
6835;BME280;3455;42.150;24.734;2023-04-28T03:16:05;66489.88;;;10.31;45.57
6835;BME280;3455;42.150;24.734;2023-04-28T03:18:32;66436.53;;;10.56;45.54
6835;BME280;3455;42.150;24.734;2023-04-28T03:20:58;66473.09;;;10.75;45.49
6835;BME280;3455;42.150;24.734;2023-04-28T03:23:25;66455.94;;;10.86;44.97
6835;BME280;3455;42.150;24.734;2023-04-28T03:25:54;66437.28;;;10.83;44.89
6835;BME280;3455;42.150;24.734;2023-04-28T03:28:20;66416.72;;;10.51;45.79
6835;BME280;3455;42.150;24.734;2023-04-28T03:30:47;66455.69;;;10.77;45.30
6835;BME280;3455;42.150;24.734;2023-04-28T03:33:14;66469.56;;;10.89;45.33
6835;BME280;3455;42.150;24.734;2023-04-28T03:35:41;66457.28;;;10.63;45.37
6835;BME280;3455;42.150;24.734;2023-04-28T03:38:07;66474.09;;;10.71;45.13
6835;BME280;3455;42.150;24.734;2023-04-28T03:40:34;66446.66;;;10.56;45.38
6835;BME280;3455;42.150;24.734;2023-04-28T03:43:02;66463.53;;;10.75;45.48
6835;BME280;3455;42.150;24.734;2023-04-28T03:45:29;66387.84;;;10.26;46.09
6835;BME280;3455;42.150;24.734;2023-04-28T03:47:56;66443.91;;;10.58;45.35
6835;BME280;3455;42.150;24.734;2023-04-28T03:50:22;66443.13;;;10.70;44.95
6835;BME280;3455;42.150;24.734;2023-04-28T03:52:49;66444.41;;;10.76;45.33
6835;BME280;3455;42.150;24.734;2023-04-28T03:55:16;66454.28;;;10.67;45.36
6835;BME280;3455;42.150;24.734;2023-04-28T03:57:42;66482.44;;;10.87;44.55
6835;BME280;3455;42.150;24.734;2023-04-28T04:00:12;66459.03;;;10.76;45.20
6835;BME280;3455;42.150;24.734;2023-04-28T04:02:39;66457.69;;;10.88;44.84
6835;BME280;3455;42.150;24.734;2023-04-28T04:05:06;66441.41;;;10.69;44.78
6835;BME280;3455;42.150;24.734;2023-04-28T04:07:33;66496.69;;;10.73;44.51
6835;BME280;3455;42.150;24.734;2023-04-28T04:10:00;66467.25;;;10.87;44.65
6835;BME280;3455;42.150;24.734;2023-04-28T04:12:26;66503.25;;;11.06;44.66
6835;BME280;3455;42.150;24.734;2023-04-28T04:14:53;66465.19;;;10.95;44.47
6835;BME280;3455;42.150;24.734;2023-04-28T04:17:21;66470.25;;;10.95;44.32
6835;BME280;3455;42.150;24.734;2023-04-28T04:19:48;66510.41;;;11.21;43.86
6835;BME280;3455;42.150;24.734;2023-04-28T04:22:15;66509.69;;;11.05;43.64
6835;BME280;3455;42.150;24.734;2023-04-28T04:24:41;66500.03;;;11.12;43.06
6835;BME280;3455;42.150;24.734;2023-04-28T04:27:08;66515.72;;;11.19;43.61
6835;BME280;3455;42.150;24.734;2023-04-28T04:29:35;66524.06;;;11.47;42.50
6835;BME280;3455;42.150;24.734;2023-04-28T04:32:01;66501.34;;;11.40;42.70
6835;BME280;3455;42.150;24.734;2023-04-28T04:34:29;66557.56;;;11.77;42.64
6835;BME280;3455;42.150;24.734;2023-04-28T04:36:56;66499.50;;;11.45;42.79
6835;BME280;3455;42.150;24.734;2023-04-28T04:39:23;66500.44;;;11.71;42.39
6835;BME280;3455;42.150;24.734;2023-04-28T04:41:50;66521.75;;;11.45;42.80
6835;BME280;3455;42.150;24.734;2023-04-28T04:44:16;66570.25;;;11.88;42.52
6835;BME280;3455;42.150;24.734;2023-04-28T04:46:43;66614.00;;;11.88;41.60
6835;BME280;3455;42.150;24.734;2023-04-28T04:49:10;66574.91;;;12.03;41.66
6835;BME280;3455;42.150;24.734;2023-04-28T04:51:38;66596.66;;;12.25;41.40
6835;BME280;3455;42.150;24.734;2023-04-28T04:54:05;66625.50;;;12.28;41.29
6835;BME280;3455;42.150;24.734;2023-04-28T04:56:32;66626.91;;;12.27;41.51
6835;BME280;3455;42.150;24.734;2023-04-28T04:58:58;66556.47;;;12.21;41.41
6835;BME280;3455;42.150;24.734;2023-04-28T05:01:25;66641.78;;;12.24;40.78
6835;BME280;3455;42.150;24.734;2023-04-28T05:03:52;66638.47;;;12.49;40.22
6835;BME280;3455;42.150;24.734;2023-04-28T05:06:19;66638.00;;;12.41;40.77
6835;BME280;3455;42.150;24.734;2023-04-28T05:08:47;66678.56;;;12.59;40.67
6835;BME280;3455;42.150;24.734;2023-04-28T05:11:14;66624.47;;;12.32;41.34
6835;BME280;3455;42.150;24.734;2023-04-28T05:13:41;66626.91;;;12.38;40.77
6835;BME280;3455;42.150;24.734;2023-04-28T05:16:07;66644.72;;;12.72;40.73
6835;BME280;3455;42.150;24.734;2023-04-28T05:18:34;66709.00;;;13.11;39.78
6835;BME280;3455;42.150;24.734;2023-04-28T05:21:01;66721.84;;;13.50;39.29
6835;BME280;3455;42.150;24.734;2023-04-28T05:23:28;66788.63;;;13.73;39.37
6835;BME280;3455;42.150;24.734;2023-04-28T05:25:56;66784.22;;;13.78;38.43
6835;BME280;3455;42.150;24.734;2023-04-28T05:28:22;66807.59;;;13.85;37.88
6835;BME280;3455;42.150;24.734;2023-04-28T05:30:49;67006.91;;;14.49;36.58
6835;BME280;3455;42.150;24.734;2023-04-28T05:33:16;66884.22;;;15.07;36.02
6835;BME280;3455;42.150;24.734;2023-04-28T05:35:43;67003.16;;;15.94;35.19
6835;BME280;3455;42.150;24.734;2023-04-28T05:38:09;67087.00;;;16.60;33.11
6835;BME280;3455;42.150;24.734;2023-04-28T05:40:36;67093.59;;;16.74;33.26
6835;BME280;3455;42.150;24.734;2023-04-28T05:43:04;67132.09;;;17.18;32.59
6835;BME280;3455;42.150;24.734;2023-04-28T05:45:31;67219.91;;;17.88;30.32
6835;BME280;3455;42.150;24.734;2023-04-28T05:47:58;67167.69;;;17.58;31.24
6835;BME280;3455;42.150;24.734;2023-04-28T05:50:25;67346.78;;;18.98;29.85
6835;BME280;3455;42.150;24.734;2023-04-28T05:52:52;67275.44;;;18.56;28.67
6835;BME280;3455;42.150;24.734;2023-04-28T05:55:19;67355.59;;;19.11;29.21
6835;BME280;3455;42.150;24.734;2023-04-28T05:57:46;67386.81;;;19.29;28.76
6835;BME280;3455;42.150;24.734;2023-04-28T06:00:15;67253.91;;;18.48;29.51
6835;BME280;3455;42.150;24.734;2023-04-28T06:02:42;67298.44;;;18.78;29.30
6835;BME280;3455;42.150;24.734;2023-04-28T06:05:08;67345.72;;;19.02;29.03
6835;BME280;3455;42.150;24.734;2023-04-28T06:07:35;67490.78;;;20.28;27.23
6835;BME280;3455;42.150;24.734;2023-04-28T06:10:02;67503.97;;;20.14;27.44
6835;BME280;3455;42.150;24.734;2023-04-28T06:12:30;67469.69;;;20.16;27.77
6835;BME280;3455;42.150;24.734;2023-04-28T06:14:56;67630.91;;;21.26;26.81
6835;BME280;3455;42.150;24.734;2023-04-28T06:17:24;67508.75;;;20.87;26.30
6835;BME280;3455;42.150;24.734;2023-04-28T06:19:51;67487.22;;;20.36;26.56
6835;BME280;3455;42.150;24.734;2023-04-28T06:22:19;67420.41;;;19.81;27.65
6835;BME280;3455;42.150;24.734;2023-04-28T06:24:45;67622.75;;;21.19;26.08
6835;BME280;3455;42.150;24.734;2023-04-28T06:27:12;67621.63;;;21.50;25.43
6835;BME280;3455;42.150;24.734;2023-04-28T06:29:39;67619.25;;;21.16;25.15
6835;BME280;3455;42.150;24.734;2023-04-28T06:32:06;67612.22;;;21.53;26.31
6835;BME280;3455;42.150;24.734;2023-04-28T06:34:34;67786.41;;;22.54;24.79
6835;BME280;3455;42.150;24.734;2023-04-28T06:37:01;67733.00;;;22.37;24.98
6835;BME280;3455;42.150;24.734;2023-04-28T06:39:28;67795.31;;;22.71;23.79
6835;BME280;3455;42.150;24.734;2023-04-28T06:41:55;67630.09;;;21.44;24.94
6835;BME280;3455;42.150;24.734;2023-04-28T06:44:22;67747.66;;;22.06;25.31
6835;BME280;3455;42.150;24.734;2023-04-28T06:46:49;67842.00;;;23.12;24.21
6835;BME280;3455;42.150;24.734;2023-04-28T06:49:15;67898.38;;;23.48;23.97
6835;BME280;3455;42.150;24.734;2023-04-28T06:51:43;67815.28;;;23.29;24.00
6835;BME280;3455;42.150;24.734;2023-04-28T06:54:10;67995.84;;;24.29;23.47
6835;BME280;3455;42.150;24.734;2023-04-28T06:56:38;68128.16;;;24.70;22.82
6835;BME280;3455;42.150;24.734;2023-04-28T06:59:04;68006.69;;;24.57;22.08
6835;BME280;3455;42.150;24.734;2023-04-28T07:01:31;68098.13;;;25.19;21.72
6835;BME280;3455;42.150;24.734;2023-04-28T07:03:58;68027.75;;;24.43;22.07
6835;BME280;3455;42.150;24.734;2023-04-28T07:06:25;67969.47;;;24.01;22.68
6835;BME280;3455;42.150;24.734;2023-04-28T07:08:55;68160.44;;;24.87;21.63
6835;BME280;3455;42.150;24.734;2023-04-28T07:11:22;68102.72;;;25.18;21.25
6835;BME280;3455;42.150;24.734;2023-04-28T07:13:48;68022.75;;;24.89;21.76
6835;BME280;3455;42.150;24.734;2023-04-28T07:16:16;67935.09;;;24.28;21.75
6835;BME280;3455;42.150;24.734;2023-04-28T07:18:43;68028.19;;;24.87;22.27
6835;BME280;3455;42.150;24.734;2023-04-28T07:21:10;68112.91;;;25.41;21.14
6835;BME280;3455;42.150;24.734;2023-04-28T07:23:36;67932.50;;;23.92;21.84
6835;BME280;3455;42.150;24.734;2023-04-28T07:26:06;67916.38;;;23.91;21.66
6835;BME280;3455;42.150;24.734;2023-04-28T07:28:33;68035.59;;;24.64;21.70
6835;BME280;3455;42.150;24.734;2023-04-28T07:30:59;68193.03;;;25.75;20.64
6835;BME280;3455;42.150;24.734;2023-04-28T07:33:26;68108.38;;;25.46;20.85
6835;BME280;3455;42.150;24.734;2023-04-28T07:35:53;68090.84;;;25.31;21.12
6835;BME280;3455;42.150;24.734;2023-04-28T07:38:20;68251.09;;;26.30;19.78
6835;BME280;3455;42.150;24.734;2023-04-28T07:40:47;68153.56;;;25.58;21.59
6835;BME280;3455;42.150;24.734;2023-04-28T07:43:15;68319.81;;;26.31;20.24
6835;BME280;3455;42.150;24.734;2023-04-28T07:45:42;68289.59;;;26.55;20.77
6835;BME280;3455;42.150;24.734;2023-04-28T07:48:10;68348.97;;;27.41;19.09
6835;BME280;3455;42.150;24.734;2023-04-28T07:50:36;68439.72;;;27.54;18.79
6835;BME280;3455;42.150;24.734;2023-04-28T07:53:03;68258.53;;;26.64;20.10
6835;BME280;3455;42.150;24.734;2023-04-28T07:55:30;68111.88;;;25.49;20.04
6835;BME280;3455;42.150;24.734;2023-04-28T07:57:57;68355.31;;;26.80;19.60
6835;BME280;3455;42.150;24.734;2023-04-28T08:00:25;68404.97;;;27.51;19.25
6835;BME280;3455;42.150;24.734;2023-04-28T08:02:52;68582.53;;;28.52;18.27
6835;BME280;3455;42.150;24.734;2023-04-28T08:05:19;68456.78;;;27.74;19.68
6835;BME280;3455;42.150;24.734;2023-04-28T08:07:45;68304.53;;;26.86;19.38
6835;BME280;3455;42.150;24.734;2023-04-28T08:10:12;68364.88;;;27.39;19.95
6835;BME280;3455;42.150;24.734;2023-04-28T08:12:39;68432.94;;;27.67;20.60
6835;BME280;3455;42.150;24.734;2023-04-28T08:15:09;68515.84;;;28.12;19.32
6835;BME280;3455;42.150;24.734;2023-04-28T08:17:37;68674.81;;;29.17;18.32
6835;BME280;3455;42.150;24.734;2023-04-28T08:20:05;68483.28;;;28.02;18.36
6835;BME280;3455;42.150;24.734;2023-04-28T08:22:32;68556.91;;;28.27;19.16
6835;BME280;3455;42.150;24.734;2023-04-28T08:24:59;68614.81;;;28.80;18.31
6835;BME280;3455;42.150;24.734;2023-04-28T08:27:26;68716.44;;;29.69;17.51
6835;BME280;3455;42.150;24.734;2023-04-28T08:29:53;68640.84;;;29.17;17.84
6835;BME280;3455;42.150;24.734;2023-04-28T08:32:19;68474.66;;;28.08;19.00
6835;BME280;3455;42.150;24.734;2023-04-28T08:34:47;68566.97;;;28.61;17.90
6835;BME280;3455;42.150;24.734;2023-04-28T08:37:14;68596.47;;;28.96;17.60
6835;BME280;3455;42.150;24.734;2023-04-28T08:39:41;68793.56;;;30.00;17.51
6835;BME280;3455;42.150;24.734;2023-04-28T08:42:08;68678.13;;;29.26;17.22
6835;BME280;3455;42.150;24.734;2023-04-28T08:44:36;68561.25;;;28.65;18.45
6835;BME280;3455;42.150;24.734;2023-04-28T08:47:08;68537.38;;;28.38;18.78
6835;BME280;3455;42.150;24.734;2023-04-28T08:49:37;68325.66;;;27.09;19.25
6835;BME280;3455;42.150;24.734;2023-04-28T08:52:09;68514.28;;;28.24;19.01
6835;BME280;3455;42.150;24.734;2023-04-28T08:54:38;68573.22;;;28.94;18.58
6835;BME280;3455;42.150;24.734;2023-04-28T08:57:07;68617.47;;;29.05;18.58
6835;BME280;3455;42.150;24.734;2023-04-28T08:59:37;68284.75;;;26.78;20.90
6835;BME280;3455;42.150;24.734;2023-04-28T09:02:04;68043.50;;;24.89;22.51
6835;BME280;3455;42.150;24.734;2023-04-28T09:04:32;68258.38;;;26.55;21.29
6835;BME280;3455;42.150;24.734;2023-04-28T09:06:58;68636.06;;;29.08;19.62
6835;BME280;3455;42.150;24.734;2023-04-28T09:09:28;68298.09;;;26.80;19.59
6835;BME280;3455;42.150;24.734;2023-04-28T09:11:56;68146.34;;;25.95;21.15
6835;BME280;3455;42.150;24.734;2023-04-28T09:14:24;68565.09;;;28.50;19.34
6835;BME280;3455;42.150;24.734;2023-04-28T09:16:51;68242.13;;;26.50;20.46
6835;BME280;3455;42.150;24.734;2023-04-28T09:19:18;68519.50;;;28.24;19.09
6835;BME280;3455;42.150;24.734;2023-04-28T09:21:46;68638.91;;;29.22;17.61
6835;BME280;3455;42.150;24.734;2023-04-28T09:24:26;68465.41;;;28.29;17.92
6835;BME280;3455;42.150;24.734;2023-04-28T09:26:53;68727.09;;;29.42;16.86
6835;BME280;3455;42.150;24.734;2023-04-28T09:29:20;68856.31;;;30.41;16.78
6835;BME280;3455;42.150;24.734;2023-04-28T09:31:47;68464.91;;;28.13;18.13
6835;BME280;3455;42.150;24.734;2023-04-28T09:34:14;68741.81;;;29.75;18.54
6835;BME280;3455;42.150;24.734;2023-04-28T09:36:40;68904.44;;;30.53;17.23
6835;BME280;3455;42.150;24.734;2023-04-28T09:39:07;68678.31;;;29.40;18.55
6835;BME280;3455;42.150;24.734;2023-04-28T09:41:36;68625.03;;;29.07;17.74
6835;BME280;3455;42.150;24.734;2023-04-28T09:44:15;68445.97;;;27.87;18.53
6835;BME280;3455;42.150;24.734;2023-04-28T09:46:43;68580.56;;;28.57;18.66
6835;BME280;3455;42.150;24.734;2023-04-28T09:49:11;68614.59;;;29.07;18.39
6835;BME280;3455;42.150;24.734;2023-04-28T09:51:38;68813.53;;;30.17;17.58
6835;BME280;3455;42.150;24.734;2023-04-28T09:54:05;68466.81;;;27.87;18.64
6835;BME280;3455;42.150;24.734;2023-04-28T09:56:33;69011.59;;;30.44;16.84
6835;BME280;3455;42.150;24.734;2023-04-28T09:59:04;68662.75;;;29.49;17.02
6835;BME280;3455;42.150;24.734;2023-04-28T10:01:33;68963.69;;;31.07;16.32
6835;BME280;3455;42.150;24.734;2023-04-28T10:04:03;68978.09;;;30.97;16.72
6835;BME280;3455;42.150;24.734;2023-04-28T10:06:30;69415.34;;;33.77;14.39
6835;BME280;3455;42.150;24.734;2023-04-28T10:08:59;69192.38;;;32.56;15.29
6835;BME280;3455;42.150;24.734;2023-04-28T10:11:27;69127.06;;;32.13;15.46
6835;BME280;3455;42.150;24.734;2023-04-28T10:13:55;68972.63;;;30.62;16.72
6835;BME280;3455;42.150;24.734;2023-04-28T10:16:23;69041.53;;;31.59;15.60
6835;BME280;3455;42.150;24.734;2023-04-28T10:18:53;68536.06;;;28.48;18.48
6835;BME280;3455;42.150;24.734;2023-04-28T10:21:22;68734.63;;;29.80;17.65
6835;BME280;3455;42.150;24.734;2023-04-28T10:24:12;69095.28;;;31.90;15.95
6835;BME280;3455;42.150;24.734;2023-04-28T10:27:07;68839.44;;;30.40;16.98
6835;BME280;3455;42.150;24.734;2023-04-28T10:29:34;68784.44;;;30.15;17.09
6835;BME280;3455;42.150;24.734;2023-04-28T10:32:20;69044.84;;;31.89;15.35
6835;BME280;3455;42.150;24.734;2023-04-28T10:34:48;68795.91;;;30.02;16.13
6835;BME280;3455;42.150;24.734;2023-04-28T10:37:15;68795.03;;;30.24;16.16
6835;BME280;3455;42.150;24.734;2023-04-28T10:42:51;69036.69;;;31.66;16.19
6835;BME280;3455;42.150;24.734;2023-04-28T10:48:53;69117.41;;;31.91;15.15
6835;BME280;3455;42.150;24.734;2023-04-28T10:51:27;69183.44;;;32.44;15.77
6835;BME280;3455;42.150;24.734;2023-04-28T10:54:15;68819.69;;;30.20;16.47
6835;BME280;3455;42.150;24.734;2023-04-28T11:00:25;69022.28;;;31.56;16.10
6835;BME280;3455;42.150;24.734;2023-04-28T11:02:52;68881.81;;;30.77;16.07
6835;BME280;3455;42.150;24.734;2023-04-28T11:05:20;68742.78;;;29.83;16.76
6835;BME280;3455;42.150;24.734;2023-04-28T11:11:13;68861.81;;;30.59;16.42
6835;BME280;3455;42.150;24.734;2023-04-28T11:13:40;68899.47;;;30.92;16.81
6835;BME280;3455;42.150;24.734;2023-04-28T11:16:08;69202.44;;;32.65;15.28
6835;BME280;3455;42.150;24.734;2023-04-28T11:21:30;68852.91;;;30.47;16.71
6835;BME280;3455;42.150;24.734;2023-04-28T11:23:57;68752.13;;;29.86;16.55
6835;BME280;3455;42.150;24.734;2023-04-28T11:26:24;68711.53;;;29.72;18.25
6835;BME280;3455;42.150;24.734;2023-04-28T11:28:55;68588.63;;;29.17;17.45
6835;BME280;3455;42.150;24.734;2023-04-28T11:31:23;68878.69;;;30.60;17.01
6835;BME280;3455;42.150;24.734;2023-04-28T11:33:53;68947.25;;;30.97;16.02
6835;BME280;3455;42.150;24.734;2023-04-28T11:36:25;69212.50;;;32.78;14.57
6835;BME280;3455;42.150;24.734;2023-04-28T11:38:54;68997.31;;;31.41;16.13
6835;BME280;3455;42.150;24.734;2023-04-28T11:41:21;68651.41;;;29.26;18.03
6835;BME280;3455;42.150;24.734;2023-04-28T11:43:48;68666.69;;;29.39;17.51
6835;BME280;3455;42.150;24.734;2023-04-28T11:46:16;68876.72;;;30.45;17.32
6835;BME280;3455;42.150;24.734;2023-04-28T11:48:43;68945.97;;;31.33;16.79
6835;BME280;3455;42.150;24.734;2023-04-28T11:51:28;69000.25;;;31.43;16.44
6835;BME280;3455;42.150;24.734;2023-04-28T11:53:58;68665.63;;;29.47;17.62
6835;BME280;3455;42.150;24.734;2023-04-28T11:56:25;68796.94;;;30.35;18.00
6835;BME280;3455;42.150;24.734;2023-04-28T11:59:00;68977.34;;;31.28;16.73
6835;BME280;3455;42.150;24.734;2023-04-28T12:01:28;69049.94;;;31.55;16.04
6835;BME280;3455;42.150;24.734;2023-04-28T12:03:55;69005.44;;;31.39;17.37
6835;BME280;3455;42.150;24.734;2023-04-28T12:06:22;68803.00;;;30.54;16.92
6835;BME280;3455;42.150;24.734;2023-04-28T12:08:49;69089.31;;;32.26;16.46
6835;BME280;3455;42.150;24.734;2023-04-28T12:11:18;68874.50;;;30.98;16.85
6835;BME280;3455;42.150;24.734;2023-04-28T12:14:03;68761.22;;;30.17;17.33
6835;BME280;3455;42.150;24.734;2023-04-28T12:16:41;68919.34;;;31.00;15.87
6835;BME280;3455;42.150;24.734;2023-04-28T12:19:12;68888.56;;;31.05;16.30
6835;BME280;3455;42.150;24.734;2023-04-28T12:21:39;68752.78;;;29.92;16.87
6835;BME280;3455;42.150;24.734;2023-04-28T12:24:17;68583.16;;;28.98;17.47
6835;BME280;3455;42.150;24.734;2023-04-28T12:26:46;68605.25;;;29.04;17.58
6835;BME280;3455;42.150;24.734;2023-04-28T12:29:38;68769.81;;;30.06;17.20
6835;BME280;3455;42.150;24.734;2023-04-28T12:32:06;68669.59;;;29.62;16.49
6835;BME280;3455;42.150;24.734;2023-04-28T12:34:34;68666.94;;;29.58;17.24
6835;BME280;3455;42.150;24.734;2023-04-28T12:37:02;68854.31;;;30.66;16.19
6835;BME280;3455;42.150;24.734;2023-04-28T12:39:30;68836.44;;;30.33;16.34
6835;BME280;3455;42.150;24.734;2023-04-28T12:41:58;68795.50;;;30.15;16.21
6835;BME280;3455;42.150;24.734;2023-04-28T12:44:26;68992.91;;;31.60;15.57
6835;BME280;3455;42.150;24.734;2023-04-28T12:46:53;68818.34;;;30.51;16.36
6835;BME280;3455;42.150;24.734;2023-04-28T12:49:21;68545.84;;;28.43;17.73
6835;BME280;3455;42.150;24.734;2023-04-28T12:51:48;68722.19;;;29.65;17.35
6835;BME280;3455;42.150;24.734;2023-04-28T12:54:15;68767.56;;;30.14;17.62
6835;BME280;3455;42.150;24.734;2023-04-28T12:56:42;68735.78;;;29.81;18.87
6835;BME280;3455;42.150;24.734;2023-04-28T12:59:10;68855.22;;;30.44;17.51
6835;BME280;3455;42.150;24.734;2023-04-28T13:01:37;68824.50;;;30.54;17.69
6835;BME280;3455;42.150;24.734;2023-04-28T13:04:04;68805.31;;;30.10;17.11
6835;BME280;3455;42.150;24.734;2023-04-28T13:06:31;68681.16;;;29.59;17.33
6835;BME280;3455;42.150;24.734;2023-04-28T13:09:01;68852.88;;;30.67;16.54
6835;BME280;3455;42.150;24.734;2023-04-28T13:11:28;68682.38;;;29.39;17.24
6835;BME280;3455;42.150;24.734;2023-04-28T13:13:56;68806.72;;;29.68;17.67
6835;BME280;3455;42.150;24.734;2023-04-28T13:16:25;68485.63;;;28.24;18.82
6835;BME280;3455;42.150;24.734;2023-04-28T13:18:54;68379.44;;;27.68;19.57
6835;BME280;3455;42.150;24.734;2023-04-28T13:21:22;68663.75;;;29.37;17.96
6835;BME280;3455;42.150;24.734;2023-04-28T13:23:51;68509.84;;;28.39;18.56
6835;BME280;3455;42.150;24.734;2023-04-28T13:26:18;68562.56;;;28.55;18.37
6835;BME280;3455;42.150;24.734;2023-04-28T13:28:45;68335.44;;;27.45;19.19
6835;BME280;3455;42.150;24.734;2023-04-28T13:31:12;68356.78;;;27.41;20.11